createdAt,value
2023-01-19T00:00:51.969Z,97692.34
2023-01-19T00:03:18.778Z,97696.94
2023-01-19T00:05:46.528Z,97694.34
2023-01-19T00:08:16.325Z,97696.22
2023-01-19T00:10:48.529Z,97703.16
2023-01-19T00:13:15.678Z,97705.09
2023-01-19T00:15:43.314Z,97702.63
2023-01-19T00:18:11.166Z,97706.84
2023-01-19T00:20:39.175Z,97708.13
2023-01-19T00:23:07.891Z,97708.03
2023-01-19T00:25:35.660Z,97711.03
2023-01-19T00:28:02.522Z,97707.03
2023-01-19T00:30:29.410Z,97702.59
2023-01-19T00:32:56.801Z,97704.56
2023-01-19T00:35:23.724Z,97709.66
2023-01-19T00:37:51.093Z,97707.63
2023-01-19T00:40:18.145Z,97712.88
2023-01-19T00:42:45.425Z,97709.69
2023-01-19T00:45:15.204Z,97714.25
2023-01-19T00:47:42.280Z,97707.03
2023-01-19T00:50:13.348Z,97707.03
2023-01-19T00:52:41.607Z,97717.19
2023-01-19T00:55:13.583Z,97707.22
2023-01-19T00:57:41.669Z,97709.66
2023-01-19T01:00:14.186Z,97715.94
2023-01-19T01:02:43.049Z,97721.31
2023-01-19T01:05:11.011Z,97722.91
2023-01-19T01:07:40.653Z,97723.69
2023-01-19T01:10:10.787Z,97723.69
2023-01-19T01:12:37.955Z,97721.19
2023-01-19T01:15:09.410Z,97722.13
2023-01-19T01:17:36.713Z,97728.63
2023-01-19T01:20:04.928Z,97727.38
2023-01-19T01:22:31.859Z,97736.78
2023-01-19T01:24:58.909Z,97739.00
2023-01-19T01:27:25.661Z,97733.84
2023-01-19T01:29:52.349Z,97739.44
2023-01-19T01:32:19.090Z,97750.94
2023-01-19T01:34:45.856Z,97737.06
2023-01-19T01:37:12.579Z,97746.59
2023-01-19T01:39:39.263Z,97754.34
2023-01-19T01:42:17.487Z,97754.25
2023-01-19T01:44:59.207Z,97748.25
2023-01-19T01:47:44.325Z,97752.47
2023-01-19T01:50:20.519Z,97748.47
2023-01-19T01:53:12.119Z,97745.41
2023-01-19T01:55:43.567Z,97741.06
2023-01-19T01:58:11.314Z,97751.69
2023-01-19T02:00:58.695Z,97745.31
2023-01-19T02:03:26.952Z,97741.19
2023-01-19T02:05:57.660Z,97735.47
2023-01-19T02:09:05.022Z,97738.69
2023-01-19T02:11:51.629Z,97734.75
2023-01-19T02:14:19.032Z,97733.06
2023-01-19T02:16:46.708Z,97730.97
2023-01-19T02:19:20.551Z,97729.00
2023-01-19T02:22:11.666Z,97725.31
2023-01-19T02:24:38.533Z,97732.03
2023-01-19T02:27:07.080Z,97732.91
2023-01-19T02:29:34.879Z,97735.22
2023-01-19T02:32:03.057Z,97731.47
2023-01-19T02:34:30.278Z,97734.81
2023-01-19T02:37:06.643Z,97732.72
2023-01-19T02:39:39.148Z,97741.81
2023-01-19T02:42:34.876Z,97739.31
2023-01-19T02:45:06.677Z,97736.59
2023-01-19T02:47:42.994Z,97735.91
2023-01-19T02:50:34.137Z,97737.50
2023-01-19T02:53:12.434Z,97746.03
2023-01-19T02:55:40.290Z,97739.06
2023-01-19T02:58:49.197Z,97740.59
2023-01-19T03:01:51.508Z,97733.66
2023-01-19T03:04:27.505Z,97728.84
2023-01-19T03:07:12.844Z,97739.66
2023-01-19T03:10:32.422Z,97730.44
2023-01-19T03:13:14.525Z,97735.19
2023-01-19T03:15:45.575Z,97739.63
2023-01-19T03:18:18.329Z,97741.16
2023-01-19T03:20:45.564Z,97742.81
2023-01-19T03:23:15.506Z,97742.03
2023-01-19T03:25:45.523Z,97745.13
2023-01-19T03:28:14.561Z,97745.75
2023-01-19T03:30:46.609Z,97746.88
2023-01-19T03:33:26.037Z,97747.44
2023-01-19T03:35:58.232Z,97752.97
2023-01-19T03:38:27.172Z,97748.16
2023-01-19T03:40:58.658Z,97748.97
2023-01-19T03:43:27.099Z,97756.06
2023-01-19T03:45:56.132Z,97751.78
2023-01-19T03:48:23.707Z,97759.91
2023-01-19T03:50:52.369Z,97760.38
2023-01-19T03:53:20.475Z,97756.06
2023-01-19T03:55:54.142Z,97758.72
2023-01-19T03:58:22.128Z,97756.53
2023-01-19T04:00:48.939Z,97760.50
2023-01-19T04:03:17.516Z,97766.31
2023-01-19T04:05:44.862Z,97764.84
2023-01-19T04:08:12.164Z,97774.44
2023-01-19T04:10:39.442Z,97774.66
2023-01-19T04:13:06.473Z,97768.63
2023-01-19T04:15:33.228Z,97773.53
2023-01-19T04:18:01.101Z,97774.88
2023-01-19T04:20:28.433Z,97767.44
2023-01-19T04:22:59.361Z,97772.84
2023-01-19T04:25:27.855Z,97773.22
2023-01-19T04:27:55.615Z,97778.78
2023-01-19T04:30:22.637Z,97772.34
2023-01-19T04:32:49.578Z,97774.16
2023-01-19T04:35:16.951Z,97772.28
2023-01-19T04:37:44.929Z,97772.84
2023-01-19T04:40:11.985Z,97774.03
2023-01-19T04:42:38.999Z,97770.81
2023-01-19T04:45:06.203Z,97771.63
2023-01-19T04:47:32.945Z,97780.16
2023-01-19T04:50:02.309Z,97773.34
2023-01-19T04:52:36.562Z,97773.81
2023-01-19T04:55:06.059Z,97771.78
2023-01-19T04:57:32.869Z,97777.94
2023-01-19T04:59:59.795Z,97781.00
2023-01-19T05:02:27.062Z,97782.41
2023-01-19T05:04:54.299Z,97777.31
2023-01-19T05:07:21.064Z,97787.47
2023-01-19T05:09:47.779Z,97768.94
2023-01-19T05:12:14.649Z,97776.97
2023-01-19T05:14:42.512Z,97779.69
2023-01-19T05:17:09.713Z,97780.03
2023-01-19T05:19:36.475Z,97780.75
2023-01-19T05:22:04.562Z,97785.03
2023-01-19T05:24:31.918Z,97791.47
2023-01-19T05:26:58.939Z,97796.84
2023-01-19T05:29:25.787Z,97801.13
2023-01-19T05:31:53.317Z,97801.78
2023-01-19T05:34:20.281Z,97803.56
2023-01-19T05:36:47.360Z,97798.91
2023-01-19T05:39:16.193Z,97803.97
2023-01-19T05:41:45.371Z,97797.81
2023-01-19T05:44:12.837Z,97813.56
2023-01-19T05:46:40.664Z,97813.56
2023-01-19T05:49:07.809Z,97817.84
2023-01-19T05:51:37.941Z,97820.25
2023-01-19T05:54:06.135Z,97827.50
2023-01-19T05:56:33.375Z,97827.34
2023-01-19T05:59:00.570Z,97828.69
2023-01-19T06:01:27.696Z,97839.34
2023-01-19T06:03:55.076Z,97834.34
2023-01-19T06:06:21.829Z,97835.94
2023-01-19T06:08:48.630Z,97826.59
2023-01-19T06:11:15.876Z,97830.78
2023-01-19T06:13:42.743Z,97838.28
2023-01-19T06:16:10.684Z,97835.63
2023-01-19T06:18:37.481Z,97840.16
2023-01-19T06:21:09.320Z,97836.94
2023-01-19T06:23:36.798Z,97833.22
2023-01-19T06:26:04.014Z,97846.81
2023-01-19T06:28:30.966Z,97846.19
2023-01-19T06:30:58.062Z,97845.31
2023-01-19T06:33:25.993Z,97852.00
2023-01-19T06:35:52.881Z,97850.38
2023-01-19T06:38:19.974Z,97850.16
2023-01-19T06:40:53.695Z,97842.41
2023-01-19T06:43:20.535Z,97833.06
2023-01-19T06:45:47.740Z,97834.91
2023-01-19T06:48:14.574Z,97848.53
2023-01-19T06:50:41.519Z,97849.66
2023-01-19T06:53:08.526Z,97845.13
2023-01-19T06:55:36.390Z,97854.97
2023-01-19T06:58:03.341Z,97857.94
2023-01-19T07:00:30.080Z,97857.47
2023-01-19T07:02:56.825Z,97865.78
2023-01-19T07:05:24.369Z,97867.19
2023-01-19T07:07:56.004Z,97867.09
2023-01-19T07:10:24.167Z,97866.88
2023-01-19T07:12:50.940Z,97867.59
2023-01-19T07:15:22.494Z,97870.03
2023-01-19T07:17:49.570Z,97874.38
2023-01-19T07:20:17.416Z,97874.31
2023-01-19T07:22:46.469Z,97870.03
2023-01-19T07:25:14.157Z,97875.19
2023-01-19T07:27:41.071Z,97877.53
2023-01-19T07:30:08.732Z,97872.22
2023-01-19T07:32:35.982Z,97873.00
2023-01-19T07:35:02.893Z,97881.16
2023-01-19T07:37:29.688Z,97878.75
2023-01-19T07:39:56.395Z,97877.63
2023-01-19T07:42:23.132Z,97874.63
2023-01-19T07:44:49.837Z,97871.72
2023-01-19T07:47:16.605Z,97875.66
2023-01-19T07:49:43.462Z,97878.16
2023-01-19T07:52:10.544Z,97881.94
2023-01-19T07:54:37.994Z,97885.25
2023-01-19T07:57:04.850Z,97879.19
2023-01-19T07:59:32.354Z,97882.72
2023-01-19T08:01:59.694Z,97884.41
2023-01-19T08:04:27.201Z,97882.56
2023-01-19T08:06:55.270Z,97886.00
2023-01-19T08:09:22.098Z,97880.13
2023-01-19T08:11:48.815Z,97895.59
2023-01-19T08:14:15.593Z,97894.06
2023-01-19T08:16:42.360Z,97890.03
2023-01-19T08:19:09.113Z,97886.34
2023-01-19T08:21:36.480Z,97884.97
2023-01-19T08:24:03.319Z,97883.91
2023-01-19T08:26:33.570Z,97886.41
2023-01-19T08:29:03.132Z,97889.75
2023-01-19T08:31:30.563Z,97898.34
2023-01-19T08:33:57.657Z,97905.34
2023-01-19T08:36:25.112Z,97906.53
2023-01-19T08:38:52.287Z,97912.41
2023-01-19T08:41:19.129Z,97910.75
2023-01-19T08:43:46.249Z,97917.19
2023-01-19T08:46:16.996Z,97915.00
2023-01-19T08:48:45.229Z,97920.59
2023-01-19T08:51:12.620Z,97913.97
2023-01-19T08:53:39.847Z,97920.91
2023-01-19T08:56:12.237Z,97922.63
2023-01-19T08:58:40.728Z,97922.47
2023-01-19T09:01:08.850Z,97914.25
2023-01-19T09:03:36.951Z,97922.69
2023-01-19T09:06:07.550Z,97925.69
2023-01-19T09:08:34.512Z,97923.13
2023-01-19T09:11:01.405Z,97921.38
2023-01-19T09:13:28.258Z,97928.97
2023-01-19T09:15:54.962Z,97917.22
2023-01-19T09:18:24.866Z,97920.41
2023-01-19T09:20:51.719Z,97920.22
2023-01-19T09:23:20.429Z,97918.06
2023-01-19T09:25:47.969Z,97912.22
2023-01-19T09:28:17.545Z,97911.38
2023-01-19T09:30:45.051Z,97918.09
2023-01-19T09:33:15.151Z,97904.81
2023-01-19T09:35:43.263Z,97911.00
2023-01-19T09:38:10.506Z,97913.50
2023-01-19T09:40:42.329Z,97918.13
2023-01-19T09:43:28.480Z,97917.31
2023-01-19T09:45:58.673Z,97917.41
2023-01-19T09:48:45.656Z,97915.94
2023-01-19T09:51:17.556Z,97911.91
2023-01-19T09:54:16.811Z,97912.66
2023-01-19T09:56:45.264Z,97912.63
2023-01-19T09:59:25.441Z,97909.41
2023-01-19T10:02:29.752Z,97913.13
2023-01-19T10:06:28.450Z,97912.75
2023-01-19T10:09:07.515Z,97915.31
2023-01-19T10:11:53.794Z,97912.72
2023-01-19T10:14:52.582Z,97910.94
2023-01-19T10:17:38.849Z,97909.13
2023-01-19T10:20:14.929Z,97910.19
2023-01-19T10:22:43.327Z,97915.56
2023-01-19T10:25:18.673Z,97916.63
2023-01-19T10:27:46.620Z,97918.22
2023-01-19T10:30:26.134Z,97914.47
2023-01-19T10:32:53.317Z,97913.13
2023-01-19T10:35:25.011Z,97909.38
2023-01-19T10:38:01.516Z,97914.72
2023-01-19T10:40:47.936Z,97908.31
2023-01-19T10:43:37.722Z,97903.16
2023-01-19T10:46:17.762Z,97907.41
2023-01-19T10:48:48.864Z,97911.44
2023-01-19T10:51:16.353Z,97911.44
2023-01-19T10:53:53.987Z,97914.94
2023-01-19T10:56:28.178Z,97910.41
2023-01-19T10:58:55.256Z,97912.03
2023-01-19T11:01:25.126Z,97917.94
2023-01-19T11:03:53.708Z,97921.44
2023-01-19T11:06:27.522Z,97909.91
2023-01-19T11:09:11.540Z,97922.25
2023-01-19T11:11:48.844Z,97927.59
2023-01-19T11:14:20.118Z,97923.56
2023-01-19T11:16:49.698Z,97934.53
2023-01-19T11:19:25.545Z,97923.84
2023-01-19T11:21:53.466Z,97941.78
2023-01-19T11:24:20.655Z,97937.75
2023-01-19T11:26:54.446Z,97940.94
2023-01-19T11:29:24.111Z,97936.66
2023-01-19T11:31:52.354Z,97942.53
2023-01-19T11:34:32.805Z,97936.09
2023-01-19T11:37:05.961Z,97939.28
2023-01-19T11:39:46.760Z,97942.50
2023-01-19T11:42:14.847Z,97940.34
2023-01-19T11:44:52.855Z,97937.69
2023-01-19T11:47:30.389Z,97935.00
2023-01-19T11:50:02.422Z,97934.25
2023-01-19T11:52:43.225Z,97935.56
2023-01-19T11:55:22.946Z,97932.88
2023-01-19T11:57:54.204Z,97931.25
2023-01-19T12:00:29.081Z,97926.16
2023-01-19T12:03:04.509Z,97921.63
2023-01-19T12:05:34.477Z,97925.91
2023-01-19T12:08:07.031Z,97926.44
2023-01-19T12:10:41.535Z,97926.13
2023-01-19T12:13:25.305Z,97933.09
2023-01-19T12:16:01.317Z,97932.31
2023-01-19T12:18:40.959Z,97924.28
2023-01-19T12:21:07.863Z,97925.09
2023-01-19T12:23:48.932Z,97922.72
2023-01-19T12:26:28.919Z,97913.63
2023-01-19T12:29:01.356Z,97913.41
2023-01-19T12:31:28.385Z,97923.81
2023-01-19T12:33:55.697Z,97921.16
2023-01-19T12:36:40.725Z,97919.84
2023-01-19T12:39:08.437Z,97926.78
2023-01-19T12:41:37.650Z,97922.50
2023-01-19T12:44:19.272Z,97918.75
2023-01-19T12:47:00.104Z,97916.63
2023-01-19T12:49:29.591Z,97915.00
2023-01-19T12:52:26.707Z,97919.56
2023-01-19T12:55:06.689Z,97921.44
2023-01-19T12:57:58.723Z,97920.63
2023-01-19T13:00:25.487Z,97930.00
2023-01-19T13:02:59.552Z,97928.13
2023-01-19T13:05:33.571Z,97934.00
2023-01-19T13:08:14.794Z,97926.50
2023-01-19T13:11:02.066Z,97929.19
2023-01-19T13:13:32.627Z,97926.50
2023-01-19T13:16:19.443Z,97931.88
2023-01-19T13:18:47.839Z,97933.47
2023-01-19T13:21:27.083Z,97939.09
2023-01-19T13:23:59.936Z,97941.78
2023-01-19T13:26:49.908Z,97931.06
2023-01-19T13:29:26.593Z,97933.22
2023-01-19T13:31:55.385Z,97934.00
2023-01-19T13:34:27.860Z,97940.94
2023-01-19T13:36:59.143Z,97938.00
2023-01-19T13:39:37.725Z,97937.47
2023-01-19T13:42:09.015Z,97936.66
2023-01-19T13:44:42.049Z,97941.25
2023-01-19T13:47:18.223Z,97943.38
2023-01-19T13:49:48.495Z,97945.53
2023-01-19T13:52:23.062Z,97948.44
2023-01-19T13:54:55.762Z,97941.75
2023-01-19T13:57:22.666Z,97946.28
2023-01-19T14:00:08.415Z,97947.88
2023-01-19T14:02:35.555Z,97947.88
2023-01-19T14:05:27.095Z,97939.06
2023-01-19T14:08:15.336Z,97948.44
2023-01-19T14:10:48.821Z,97946.84
2023-01-19T14:13:16.048Z,97951.41
2023-01-19T14:15:44.122Z,97951.66
2023-01-19T14:18:14.346Z,97951.69
2023-01-19T14:21:03.002Z,97947.13
2023-01-19T14:23:49.398Z,97956.25
2023-01-19T14:26:38.301Z,97957.56
2023-01-19T14:29:29.027Z,97954.88
2023-01-19T14:32:21.268Z,97947.88
2023-01-19T14:35:12.449Z,97953.25
2023-01-19T14:37:49.202Z,97950.84
2023-01-19T14:40:21.258Z,97951.13
2023-01-19T14:43:06.484Z,97956.22
2023-01-19T14:45:40.383Z,97954.84
2023-01-19T14:48:18.671Z,97951.38
2023-01-19T14:51:02.076Z,97955.38
2023-01-19T14:53:36.527Z,97950.03
2023-01-19T14:56:05.350Z,97952.69
2023-01-19T14:58:36.302Z,97953.75
2023-01-19T15:01:04.527Z,97945.19
2023-01-19T15:03:43.690Z,97954.81
2023-01-19T15:06:23.092Z,97947.09
2023-01-19T15:08:53.233Z,97951.94
2023-01-19T15:11:32.838Z,97955.69
2023-01-19T15:14:00.264Z,97946.31
2023-01-19T15:16:29.892Z,97946.81
2023-01-19T15:18:56.740Z,97943.06
2023-01-19T15:21:26.284Z,97943.34
2023-01-19T15:23:54.325Z,97947.34
2023-01-19T15:26:24.286Z,97945.72
2023-01-19T15:28:51.414Z,97949.50
2023-01-19T15:31:22.656Z,97941.75
2023-01-19T15:33:50.729Z,97950.56
2023-01-19T15:36:20.271Z,97946.56
2023-01-19T15:38:47.982Z,97943.06
2023-01-19T15:41:26.958Z,97948.16
2023-01-19T15:43:56.089Z,97952.16
2023-01-19T15:46:25.179Z,97958.03
2023-01-19T15:48:53.694Z,97961.25
2023-01-19T15:51:22.976Z,97956.72
2023-01-19T15:53:50.243Z,97956.72
2023-01-19T15:56:21.175Z,97956.94
2023-01-19T15:58:48.011Z,97958.78
2023-01-19T16:01:18.529Z,97953.97
2023-01-19T16:03:46.503Z,97950.22
2023-01-19T16:06:13.955Z,97955.03
2023-01-19T16:08:41.108Z,97957.44
2023-01-19T16:11:10.913Z,97962.47
2023-01-19T16:13:38.432Z,97952.06
2023-01-19T16:16:13.711Z,97958.44
2023-01-19T16:18:40.523Z,97952.75
2023-01-19T16:21:07.290Z,97958.56
2023-01-19T16:23:39.534Z,97962.28
2023-01-19T16:26:28.574Z,97957.13
2023-01-19T16:29:00.416Z,97956.59
2023-01-19T16:31:27.988Z,97958.41
2023-01-19T16:33:54.768Z,97965.59
2023-01-19T16:36:26.784Z,97960.28
2023-01-19T16:38:54.178Z,97961.34
2023-01-19T16:41:21.270Z,97958.13
2023-01-19T16:43:53.381Z,97956.97
2023-01-19T16:46:26.435Z,97961.78
2023-01-19T16:48:53.753Z,97962.06
2023-01-19T16:51:20.515Z,97954.31
2023-01-19T16:53:50.327Z,97953.56
2023-01-19T16:56:17.486Z,97955.09
2023-01-19T16:58:44.815Z,97960.41
2023-01-19T17:01:13.120Z,97967.06
2023-01-19T17:03:40.997Z,97959.03
2023-01-19T17:06:09.605Z,97963.78
2023-01-19T17:08:37.607Z,97961.91
2023-01-19T17:11:16.957Z,97961.03
2023-01-19T17:13:43.884Z,97965.28
2023-01-19T17:16:10.971Z,97958.84
2023-01-19T17:18:38.031Z,97960.63
2023-01-19T17:21:07.940Z,97959.75
2023-01-19T17:23:36.479Z,97961.91
2023-01-19T17:26:04.541Z,97967.50
2023-01-19T17:28:31.345Z,97964.03
2023-01-19T17:31:07.010Z,97965.44
2023-01-19T17:33:35.493Z,97965.16
2023-01-19T17:36:12.887Z,97964.59
2023-01-19T17:38:40.631Z,97962.63
2023-01-19T17:41:19.339Z,97964.41
2023-01-19T17:43:47.036Z,97966.75
2023-01-19T17:46:14.247Z,97970.84
2023-01-19T17:48:41.616Z,97970.28
2023-01-19T17:51:17.050Z,97971.44
2023-01-19T17:53:43.823Z,97973.47
2023-01-19T17:56:13.946Z,97971.47
2023-01-19T17:58:41.341Z,97964.03
2023-01-19T18:01:39.742Z,97971.69
2023-01-19T18:04:08.288Z,97971.97
2023-01-19T18:06:35.324Z,97980.81
2023-01-19T18:09:02.684Z,97972.94
2023-01-19T18:11:29.616Z,97971.88
2023-01-19T18:13:56.548Z,97976.38
2023-01-19T18:16:25.532Z,97970.56
2023-01-19T18:18:54.063Z,97970.31
2023-01-19T18:21:21.986Z,97971.69
2023-01-19T18:23:50.199Z,97972.94
2023-01-19T18:26:22.149Z,97973.47
2023-01-19T18:28:49.831Z,97975.66
2023-01-19T18:31:23.590Z,97976.09
2023-01-19T18:33:50.797Z,97979.00
2023-01-19T18:36:17.807Z,97988.59
2023-01-19T18:38:45.238Z,97979.00
2023-01-19T18:41:16.366Z,97985.69
2023-01-19T18:43:44.916Z,97981.66
2023-01-19T18:46:11.722Z,97978.44
2023-01-19T18:48:39.213Z,97986.94
2023-01-19T18:51:14.151Z,97980.00
2023-01-19T18:53:43.981Z,97984.78
2023-01-19T18:56:12.868Z,97985.75
2023-01-19T18:58:40.322Z,97993.13
2023-01-19T19:01:25.853Z,97989.50
2023-01-19T19:03:53.804Z,97987.31
2023-01-19T19:06:21.628Z,97983.28
2023-01-19T19:08:50.934Z,97987.00
2023-01-19T19:11:19.206Z,97984.41
2023-01-19T19:13:46.277Z,97982.28
2023-01-19T19:16:13.920Z,97988.50
2023-01-19T19:18:40.788Z,97980.56
2023-01-19T19:21:12.382Z,97990.97
2023-01-19T19:23:39.141Z,97992.34
2023-01-19T19:26:09.503Z,97994.88
2023-01-19T19:28:38.184Z,97987.63
2023-01-19T19:31:17.949Z,97992.72
2023-01-19T19:33:44.806Z,97989.00
2023-01-19T19:36:12.511Z,97995.63
2023-01-19T19:38:44.271Z,97994.81
2023-01-19T19:41:13.613Z,97995.69
2023-01-19T19:43:40.707Z,98000.72
2023-01-19T19:46:10.721Z,98001.56
2023-01-19T19:48:39.375Z,97994.28
2023-01-19T19:51:19.226Z,97999.75
2023-01-19T19:53:50.905Z,98001.75
2023-01-19T19:56:20.887Z,97995.94
2023-01-19T19:58:48.044Z,97992.03
2023-01-19T20:01:26.753Z,98000.31
2023-01-19T20:03:55.804Z,98003.19
2023-01-19T20:06:24.804Z,98010.44
2023-01-19T20:08:53.671Z,98004.63
2023-01-19T20:11:23.083Z,98002.44
2023-01-19T20:13:50.697Z,98001.91
2023-01-19T20:16:20.874Z,98006.59
2023-01-19T20:18:53.854Z,98013.59
2023-01-19T20:21:22.317Z,98013.66
2023-01-19T20:23:50.725Z,98002.56
2023-01-19T20:26:20.303Z,98000.81
2023-01-19T20:28:47.677Z,98002.81
2023-01-19T20:31:22.077Z,98010.13
2023-01-19T20:33:52.737Z,98007.66
2023-01-19T20:36:19.711Z,98004.50
2023-01-19T20:38:48.794Z,98009.81
2023-01-19T20:41:15.566Z,98010.38
2023-01-19T20:43:42.738Z,98011.22
2023-01-19T20:46:10.258Z,98013.66
2023-01-19T20:48:39.291Z,98016.56
2023-01-19T20:51:11.937Z,98017.69
2023-01-19T20:53:40.787Z,98015.09
2023-01-19T20:56:12.043Z,98016.19
2023-01-19T20:58:39.549Z,98018.50
2023-01-19T21:01:20.839Z,98016.56
2023-01-19T21:03:47.848Z,98016.81
2023-01-19T21:06:15.242Z,98026.50
2023-01-19T21:08:42.458Z,98023.50
2023-01-19T21:11:10.615Z,98024.88
2023-01-19T21:13:38.188Z,98025.13
2023-01-19T21:16:05.535Z,98028.03
2023-01-19T21:18:33.300Z,98037.81
2023-01-19T21:21:00.197Z,98035.72
2023-01-19T21:23:28.363Z,98038.22
2023-01-19T21:25:57.769Z,98047.06
2023-01-19T21:28:25.979Z,98049.50
2023-01-19T21:30:53.737Z,98054.50
2023-01-19T21:33:22.177Z,98058.22
2023-01-19T21:35:54.503Z,98057.72
2023-01-19T21:38:22.424Z,98054.06
2023-01-19T21:40:50.303Z,98051.16
2023-01-19T21:43:19.207Z,98061.00
2023-01-19T21:45:47.320Z,98057.28
2023-01-19T21:48:15.013Z,98054.56
2023-01-19T21:50:41.838Z,98057.66
2023-01-19T21:53:11.187Z,98050.97
2023-01-19T21:55:38.508Z,98060.81
2023-01-19T21:58:05.354Z,98063.75
2023-01-19T22:00:32.357Z,98062.13
2023-01-19T22:03:04.087Z,98060.03
2023-01-19T22:05:36.864Z,98062.44
2023-01-19T22:08:06.143Z,98074.19
2023-01-19T22:10:36.043Z,98068.94
2023-01-19T22:13:03.210Z,98069.44
2023-01-19T22:15:31.263Z,98070.56
2023-01-19T22:17:57.998Z,98077.56
2023-01-19T22:20:24.827Z,98071.94
2023-01-19T22:22:51.563Z,98077.56
2023-01-19T22:25:21.911Z,98085.63
2023-01-19T22:27:48.639Z,98091.22
2023-01-19T22:30:15.704Z,98092.50
2023-01-19T22:32:42.455Z,98097.84
2023-01-19T22:35:09.440Z,98096.97
2023-01-19T22:37:37.047Z,98093.75
2023-01-19T22:40:04.901Z,98094.53
2023-01-19T22:42:31.648Z,98100.13
2023-01-19T22:44:58.374Z,98100.63
2023-01-19T22:47:25.101Z,98093.34
2023-01-19T22:49:51.792Z,98097.13
2023-01-19T22:52:18.539Z,98095.03
2023-01-19T22:54:45.260Z,98093.97
2023-01-19T22:57:11.993Z,98101.91
2023-01-19T22:59:38.924Z,98103.53
2023-01-19T23:02:06.167Z,98096.00
2023-01-19T23:04:33.105Z,98107.16
2023-01-19T23:06:59.983Z,98103.72
2023-01-19T23:09:26.889Z,98103.38
2023-01-19T23:11:53.734Z,98100.47
2023-01-19T23:14:22.099Z,98103.44
2023-01-19T23:16:49.328Z,98104.00
2023-01-19T23:19:17.340Z,98103.78
2023-01-19T23:21:44.706Z,98107.22
2023-01-19T23:24:11.832Z,98101.03
2023-01-19T23:26:39.117Z,98104.63
2023-01-19T23:29:10.166Z,98108.06
2023-01-19T23:31:38.792Z,98108.72
2023-01-19T23:34:08.591Z,98105.25
2023-01-19T23:36:37.744Z,98110.31
2023-01-19T23:39:12.534Z,98114.59
2023-01-19T23:41:39.382Z,98113.31
2023-01-19T23:44:06.336Z,98110.94
2023-01-19T23:46:33.224Z,98107.50
2023-01-19T23:49:00.347Z,98110.47
2023-01-19T23:51:29.946Z,98113.25
2023-01-19T23:53:58.665Z,98115.28
2023-01-19T23:56:34.162Z,98119.28
2023-01-19T23:59:04.446Z,98121.16
